Terminal Aerodrome Forecast
Issued by NWS

Home | Current Version | Previous Version | Text Only | Print | Product List | Glossary On
Versions: 1 2 3 4 5 6 7 8 9 10 11 12 13 14 15 16 17 18 19 20 21 22 23 24 25 26 27 28 29 30 31 32 33 34 35 36
000
FTUS42 KCAE 021500 AAD
TAFCUB
TAF AMD
KCUB 021543Z 0216/0312 26006KT P6SM SCT015 BKN150
     FM021700 29005KT P6SM BKN025
     FM022100 04004KT P6SM BKN050
     FM030300 06006KT P6SM OVC015
     FM030900 07006KT 6SM -RA BR BKN007 OVC015=

USA.gov is the U.S. government's official web portal to all federal, state and local government web resources and services.